sensor_id;sensor_type;location;lat;lon;timestamp;P1;durP1;ratioP1;P2;durP2;ratioP2
10452;SDS011;5274;51.992;8.518;2023-11-22T00:01:15;39.15;;;36.45;;
10452;SDS011;5274;51.992;8.518;2023-11-22T00:03:41;39.33;;;36.83;;
10452;SDS011;5274;51.992;8.518;2023-11-22T00:06:07;42.88;;;40.30;;
10452;SDS011;5274;51.992;8.518;2023-11-22T00:08:32;36.42;;;34.03;;
10452;SDS011;5274;51.992;8.518;2023-11-22T00:10:59;39.30;;;36.47;;
10452;SDS011;5274;51.992;8.518;2023-11-22T00:13:25;37.33;;;34.78;;
10452;SDS011;5274;51.992;8.518;2023-11-22T00:15:51;40.90;;;38.35;;
10452;SDS011;5274;51.992;8.518;2023-11-22T00:18:17;39.50;;;36.90;;
10452;SDS011;5274;51.992;8.518;2023-11-22T00:20:43;38.90;;;36.30;;
10452;SDS011;5274;51.992;8.518;2023-11-22T00:23:09;39.42;;;36.92;;
10452;SDS011;5274;51.992;8.518;2023-11-22T00:25:35;41.05;;;38.30;;
10452;SDS011;5274;51.992;8.518;2023-11-22T00:28:01;38.50;;;35.80;;
10452;SDS011;5274;51.992;8.518;2023-11-22T00:30:27;40.65;;;37.95;;
10452;SDS011;5274;51.992;8.518;2023-11-22T00:32:53;36.50;;;33.97;;
10452;SDS011;5274;51.992;8.518;2023-11-22T00:35:19;39.85;;;37.05;;
10452;SDS011;5274;51.992;8.518;2023-11-22T00:37:45;42.17;;;39.47;;
10452;SDS011;5274;51.992;8.518;2023-11-22T00:40:11;39.10;;;36.63;;
10452;SDS011;5274;51.992;8.518;2023-11-22T00:42:38;33.10;;;31.00;;
10452;SDS011;5274;51.992;8.518;2023-11-22T00:45:05;32.85;;;30.80;;
10452;SDS011;5274;51.992;8.518;2023-11-22T00:47:32;31.17;;;29.40;;
10452;SDS011;5274;51.992;8.518;2023-11-22T00:49:58;32.13;;;30.23;;
10452;SDS011;5274;51.992;8.518;2023-11-22T00:52:24;33.05;;;30.83;;
10452;SDS011;5274;51.992;8.518;2023-11-22T00:54:50;30.90;;;29.10;;
10452;SDS011;5274;51.992;8.518;2023-11-22T00:57:16;31.63;;;29.80;;
10452;SDS011;5274;51.992;8.518;2023-11-22T00:59:42;30.27;;;28.55;;
10452;SDS011;5274;51.992;8.518;2023-11-22T01:02:08;30.33;;;28.55;;
10452;SDS011;5274;51.992;8.518;2023-11-22T01:04:34;30.07;;;28.37;;
10452;SDS011;5274;51.992;8.518;2023-11-22T01:07:02;32.22;;;30.33;;
10452;SDS011;5274;51.992;8.518;2023-11-22T01:09:29;30.27;;;28.50;;
10452;SDS011;5274;51.992;8.518;2023-11-22T01:11:57;32.28;;;30.48;;
10452;SDS011;5274;51.992;8.518;2023-11-22T01:14:22;34.23;;;32.17;;
10452;SDS011;5274;51.992;8.518;2023-11-22T01:16:49;50.93;;;48.00;;
10452;SDS011;5274;51.992;8.518;2023-11-22T01:19:14;51.23;;;48.23;;
10452;SDS011;5274;51.992;8.518;2023-11-22T01:21:41;51.77;;;48.87;;
10452;SDS011;5274;51.992;8.518;2023-11-22T01:24:07;50.90;;;48.00;;
10452;SDS011;5274;51.992;8.518;2023-11-22T01:26:33;50.55;;;47.55;;
10452;SDS011;5274;51.992;8.518;2023-11-22T01:28:59;50.00;;;47.15;;
10452;SDS011;5274;51.992;8.518;2023-11-22T01:31:25;51.70;;;48.60;;
10452;SDS011;5274;51.992;8.518;2023-11-22T01:33:52;49.47;;;46.70;;
10452;SDS011;5274;51.992;8.518;2023-11-22T01:36:18;49.40;;;46.40;;
10452;SDS011;5274;51.992;8.518;2023-11-22T01:38:44;50.30;;;47.30;;
10452;SDS011;5274;51.992;8.518;2023-11-22T01:41:11;52.07;;;48.93;;
10452;SDS011;5274;51.992;8.518;2023-11-22T01:43:38;52.13;;;49.13;;
10452;SDS011;5274;51.992;8.518;2023-11-22T01:46:07;50.13;;;47.23;;
10452;SDS011;5274;51.992;8.518;2023-11-22T01:48:33;51.73;;;48.73;;
10452;SDS011;5274;51.992;8.518;2023-11-22T01:51:01;51.13;;;48.27;;
10452;SDS011;5274;51.992;8.518;2023-11-22T01:53:27;50.97;;;48.03;;
10452;SDS011;5274;51.992;8.518;2023-11-22T01:55:53;49.63;;;46.83;;
10452;SDS011;5274;51.992;8.518;2023-11-22T01:58:19;50.00;;;47.10;;
10452;SDS011;5274;51.992;8.518;2023-11-22T02:00:48;48.30;;;45.50;;
10452;SDS011;5274;51.992;8.518;2023-11-22T02:03:15;49.13;;;46.43;;
10452;SDS011;5274;51.992;8.518;2023-11-22T02:05:47;50.50;;;47.37;;
10452;SDS011;5274;51.992;8.518;2023-11-22T02:08:13;52.37;;;49.47;;
10452;SDS011;5274;51.992;8.518;2023-11-22T02:10:40;51.53;;;48.67;;
10452;SDS011;5274;51.992;8.518;2023-11-22T02:13:07;51.13;;;47.97;;
10452;SDS011;5274;51.992;8.518;2023-11-22T02:15:36;51.27;;;48.37;;
10452;SDS011;5274;51.992;8.518;2023-11-22T02:18:02;52.47;;;49.57;;
10452;SDS011;5274;51.992;8.518;2023-11-22T02:20:30;52.07;;;48.97;;
10452;SDS011;5274;51.992;8.518;2023-11-22T02:22:56;51.83;;;48.77;;
10452;SDS011;5274;51.992;8.518;2023-11-22T02:25:22;52.40;;;49.30;;
10452;SDS011;5274;51.992;8.518;2023-11-22T02:27:48;52.90;;;49.67;;
10452;SDS011;5274;51.992;8.518;2023-11-22T02:30:14;50.97;;;47.80;;
10452;SDS011;5274;51.992;8.518;2023-11-22T02:32:40;52.97;;;49.53;;
10452;SDS011;5274;51.992;8.518;2023-11-22T02:35:06;51.00;;;48.10;;
10452;SDS011;5274;51.992;8.518;2023-11-22T02:37:33;50.97;;;48.07;;
10452;SDS011;5274;51.992;8.518;2023-11-22T02:40:02;50.73;;;47.73;;
10452;SDS011;5274;51.992;8.518;2023-11-22T02:42:30;51.80;;;48.80;;
10452;SDS011;5274;51.992;8.518;2023-11-22T02:44:56;52.30;;;49.20;;
10452;SDS011;5274;51.992;8.518;2023-11-22T02:47:22;52.17;;;49.10;;
10452;SDS011;5274;51.992;8.518;2023-11-22T02:49:48;50.40;;;47.30;;
10452;SDS011;5274;51.992;8.518;2023-11-22T02:52:14;53.40;;;50.07;;
10452;SDS011;5274;51.992;8.518;2023-11-22T02:54:42;51.10;;;48.03;;
10452;SDS011;5274;51.992;8.518;2023-11-22T02:57:10;49.97;;;47.00;;
10452;SDS011;5274;51.992;8.518;2023-11-22T02:59:36;51.60;;;48.50;;
10452;SDS011;5274;51.992;8.518;2023-11-22T03:02:02;50.23;;;47.23;;
10452;SDS011;5274;51.992;8.518;2023-11-22T03:04:28;52.97;;;49.77;;
10452;SDS011;5274;51.992;8.518;2023-11-22T03:06:54;51.67;;;48.77;;
10452;SDS011;5274;51.992;8.518;2023-11-22T03:09:20;51.53;;;48.53;;
10452;SDS011;5274;51.992;8.518;2023-11-22T03:11:48;51.73;;;48.80;;
10452;SDS011;5274;51.992;8.518;2023-11-22T03:14:13;54.63;;;51.33;;
10452;SDS011;5274;51.992;8.518;2023-11-22T03:16:40;51.27;;;48.37;;
10452;SDS011;5274;51.992;8.518;2023-11-22T03:19:07;51.53;;;48.47;;
10452;SDS011;5274;51.992;8.518;2023-11-22T03:21:33;51.30;;;48.37;;
10452;SDS011;5274;51.992;8.518;2023-11-22T03:24:00;51.00;;;47.90;;
10452;SDS011;5274;51.992;8.518;2023-11-22T03:26:29;47.73;;;44.93;;
10452;SDS011;5274;51.992;8.518;2023-11-22T03:28:55;49.47;;;46.57;;
10452;SDS011;5274;51.992;8.518;2023-11-22T03:31:21;48.67;;;45.97;;
10452;SDS011;5274;51.992;8.518;2023-11-22T03:33:47;49.97;;;47.13;;
10452;SDS011;5274;51.992;8.518;2023-11-22T03:36:13;49.80;;;46.80;;
10452;SDS011;5274;51.992;8.518;2023-11-22T03:38:39;49.40;;;46.50;;
10452;SDS011;5274;51.992;8.518;2023-11-22T03:41:05;50.47;;;47.57;;
10452;SDS011;5274;51.992;8.518;2023-11-22T03:43:31;50.87;;;47.97;;
10452;SDS011;5274;51.992;8.518;2023-11-22T03:45:57;51.53;;;48.53;;
10452;SDS011;5274;51.992;8.518;2023-11-22T03:48:23;50.37;;;47.33;;
10452;SDS011;5274;51.992;8.518;2023-11-22T03:50:50;49.83;;;47.03;;
10452;SDS011;5274;51.992;8.518;2023-11-22T03:53:16;50.37;;;47.17;;
10452;SDS011;5274;51.992;8.518;2023-11-22T03:55:43;50.30;;;47.00;;
10452;SDS011;5274;51.992;8.518;2023-11-22T03:58:10;51.33;;;48.10;;
10452;SDS011;5274;51.992;8.518;2023-11-22T04:00:36;51.93;;;48.97;;
10452;SDS011;5274;51.992;8.518;2023-11-22T04:03:01;53.47;;;50.07;;
10452;SDS011;5274;51.992;8.518;2023-11-22T04:05:27;52.57;;;49.57;;
10452;SDS011;5274;51.992;8.518;2023-11-22T04:07:53;51.53;;;48.67;;
10452;SDS011;5274;51.992;8.518;2023-11-22T04:10:21;53.00;;;49.90;;
10452;SDS011;5274;51.992;8.518;2023-11-22T04:12:47;54.07;;;50.80;;
10452;SDS011;5274;51.992;8.518;2023-11-22T04:15:13;49.80;;;47.10;;
10452;SDS011;5274;51.992;8.518;2023-11-22T04:17:40;51.03;;;48.03;;
10452;SDS011;5274;51.992;8.518;2023-11-22T04:20:06;49.73;;;46.60;;
10452;SDS011;5274;51.992;8.518;2023-11-22T04:22:35;48.93;;;45.93;;
10452;SDS011;5274;51.992;8.518;2023-11-22T04:25:01;48.77;;;45.83;;
10452;SDS011;5274;51.992;8.518;2023-11-22T04:27:27;48.43;;;45.63;;
10452;SDS011;5274;51.992;8.518;2023-11-22T04:29:53;48.30;;;45.50;;
10452;SDS011;5274;51.992;8.518;2023-11-22T04:32:19;51.20;;;48.10;;
10452;SDS011;5274;51.992;8.518;2023-11-22T04:34:47;49.70;;;46.87;;
10452;SDS011;5274;51.992;8.518;2023-11-22T04:37:13;50.30;;;47.30;;
10452;SDS011;5274;51.992;8.518;2023-11-22T04:39:39;48.80;;;45.80;;
10452;SDS011;5274;51.992;8.518;2023-11-22T04:42:05;50.07;;;47.07;;
10452;SDS011;5274;51.992;8.518;2023-11-22T04:44:31;48.87;;;45.97;;
10452;SDS011;5274;51.992;8.518;2023-11-22T04:46:57;48.83;;;46.00;;
10452;SDS011;5274;51.992;8.518;2023-11-22T04:49:26;45.70;;;42.63;;
10452;SDS011;5274;51.992;8.518;2023-11-22T04:51:52;45.57;;;42.97;;
10452;SDS011;5274;51.992;8.518;2023-11-22T04:54:18;45.63;;;42.83;;
10452;SDS011;5274;51.992;8.518;2023-11-22T04:56:44;53.27;;;49.97;;
10452;SDS011;5274;51.992;8.518;2023-11-22T04:59:10;55.53;;;51.83;;
10452;SDS011;5274;51.992;8.518;2023-11-22T05:01:36;57.53;;;53.77;;
10452;SDS011;5274;51.992;8.518;2023-11-22T05:04:02;57.67;;;53.87;;
10452;SDS011;5274;51.992;8.518;2023-11-22T05:06:28;56.13;;;52.73;;
10452;SDS011;5274;51.992;8.518;2023-11-22T05:08:54;57.03;;;53.57;;
10452;SDS011;5274;51.992;8.518;2023-11-22T05:11:21;53.40;;;50.30;;
10452;SDS011;5274;51.992;8.518;2023-11-22T05:13:47;57.80;;;54.37;;
10452;SDS011;5274;51.992;8.518;2023-11-22T05:16:15;55.50;;;52.20;;
10452;SDS011;5274;51.992;8.518;2023-11-22T05:18:41;55.60;;;52.20;;
10452;SDS011;5274;51.992;8.518;2023-11-22T05:21:06;55.87;;;52.37;;
10452;SDS011;5274;51.992;8.518;2023-11-22T05:23:32;55.20;;;51.73;;
10452;SDS011;5274;51.992;8.518;2023-11-22T05:25:58;56.17;;;52.77;;
10452;SDS011;5274;51.992;8.518;2023-11-22T05:28:28;57.10;;;53.60;;
10452;SDS011;5274;51.992;8.518;2023-11-22T05:30:54;56.47;;;52.97;;
10452;SDS011;5274;51.992;8.518;2023-11-22T05:33:20;57.73;;;54.10;;
10452;SDS011;5274;51.992;8.518;2023-11-22T05:35:46;58.17;;;54.20;;
10452;SDS011;5274;51.992;8.518;2023-11-22T05:38:12;57.93;;;54.03;;
10452;SDS011;5274;51.992;8.518;2023-11-22T05:40:38;57.00;;;53.30;;
10452;SDS011;5274;51.992;8.518;2023-11-22T05:43:04;55.30;;;51.70;;
10452;SDS011;5274;51.992;8.518;2023-11-22T05:45:30;56.03;;;52.43;;
10452;SDS011;5274;51.992;8.518;2023-11-22T05:47:56;57.23;;;53.53;;
10452;SDS011;5274;51.992;8.518;2023-11-22T05:50:22;57.40;;;53.40;;
10452;SDS011;5274;51.992;8.518;2023-11-22T05:52:48;55.53;;;51.97;;
10452;SDS011;5274;51.992;8.518;2023-11-22T05:55:14;55.93;;;52.07;;
10452;SDS011;5274;51.992;8.518;2023-11-22T05:57:40;54.87;;;51.57;;
10452;SDS011;5274;51.992;8.518;2023-11-22T06:00:07;56.97;;;53.37;;
10452;SDS011;5274;51.992;8.518;2023-11-22T06:02:33;56.27;;;52.87;;
10452;SDS011;5274;51.992;8.518;2023-11-22T06:04:59;55.80;;;52.43;;
10452;SDS011;5274;51.992;8.518;2023-11-22T06:07:26;56.00;;;52.50;;
10452;SDS011;5274;51.992;8.518;2023-11-22T06:09:52;56.20;;;52.60;;
10452;SDS011;5274;51.992;8.518;2023-11-22T06:12:18;57.00;;;53.50;;
10452;SDS011;5274;51.992;8.518;2023-11-22T06:14:45;56.00;;;52.60;;
10452;SDS011;5274;51.992;8.518;2023-11-22T06:17:11;56.90;;;53.13;;
10452;SDS011;5274;51.992;8.518;2023-11-22T06:19:38;58.27;;;54.37;;
10452;SDS011;5274;51.992;8.518;2023-11-22T06:22:04;56.13;;;52.67;;
10452;SDS011;5274;51.992;8.518;2023-11-22T06:24:31;56.77;;;53.20;;
10452;SDS011;5274;51.992;8.518;2023-11-22T06:26:58;59.10;;;55.23;;
10452;SDS011;5274;51.992;8.518;2023-11-22T06:29:24;57.80;;;54.07;;
10452;SDS011;5274;51.992;8.518;2023-11-22T06:31:50;57.23;;;53.60;;
10452;SDS011;5274;51.992;8.518;2023-11-22T06:34:16;58.33;;;54.53;;
10452;SDS011;5274;51.992;8.518;2023-11-22T06:36:42;56.83;;;53.00;;
10452;SDS011;5274;51.992;8.518;2023-11-22T06:39:08;57.47;;;53.43;;
10452;SDS011;5274;51.992;8.518;2023-11-22T06:41:34;54.17;;;50.87;;
10452;SDS011;5274;51.992;8.518;2023-11-22T06:44:00;54.67;;;51.20;;
10452;SDS011;5274;51.992;8.518;2023-11-22T06:46:28;54.93;;;51.53;;
10452;SDS011;5274;51.992;8.518;2023-11-22T06:48:54;52.63;;;49.23;;
10452;SDS011;5274;51.992;8.518;2023-11-22T06:51:21;51.80;;;48.60;;
10452;SDS011;5274;51.992;8.518;2023-11-22T06:53:47;56.07;;;52.17;;
10452;SDS011;5274;51.992;8.518;2023-11-22T06:56:13;55.33;;;51.97;;
10452;SDS011;5274;51.992;8.518;2023-11-22T06:58:39;53.80;;;50.33;;
10452;SDS011;5274;51.992;8.518;2023-11-22T07:01:05;53.90;;;50.60;;
10452;SDS011;5274;51.992;8.518;2023-11-22T07:03:32;54.10;;;50.53;;
10452;SDS011;5274;51.992;8.518;2023-11-22T07:05:58;54.07;;;50.47;;
10452;SDS011;5274;51.992;8.518;2023-11-22T07:08:24;52.30;;;49.00;;
10452;SDS011;5274;51.992;8.518;2023-11-22T07:10:51;55.43;;;51.90;;
10452;SDS011;5274;51.992;8.518;2023-11-22T07:13:17;54.03;;;50.53;;
10452;SDS011;5274;51.992;8.518;2023-11-22T07:15:43;52.50;;;48.97;;
10452;SDS011;5274;51.992;8.518;2023-11-22T07:18:09;52.63;;;49.13;;
10452;SDS011;5274;51.992;8.518;2023-11-22T07:20:35;63.27;;;57.90;;
10452;SDS011;5274;51.992;8.518;2023-11-22T07:23:02;65.30;;;60.03;;
10452;SDS011;5274;51.992;8.518;2023-11-22T07:25:28;55.40;;;51.60;;
10452;SDS011;5274;51.992;8.518;2023-11-22T07:27:54;56.93;;;53.03;;
10452;SDS011;5274;51.992;8.518;2023-11-22T07:30:20;55.37;;;51.67;;
10452;SDS011;5274;51.992;8.518;2023-11-22T07:32:48;52.63;;;49.13;;
10452;SDS011;5274;51.992;8.518;2023-11-22T07:35:14;52.30;;;49.10;;
10452;SDS011;5274;51.992;8.518;2023-11-22T07:37:40;54.80;;;51.27;;
10452;SDS011;5274;51.992;8.518;2023-11-22T07:40:10;50.20;;;46.90;;
10452;SDS011;5274;51.992;8.518;2023-11-22T07:42:38;52.70;;;49.40;;
10452;SDS011;5274;51.992;8.518;2023-11-22T07:45:04;52.70;;;49.40;;
10452;SDS011;5274;51.992;8.518;2023-11-22T07:47:31;52.90;;;49.50;;
10452;SDS011;5274;51.992;8.518;2023-11-22T07:49:57;51.17;;;48.07;;
10452;SDS011;5274;51.992;8.518;2023-11-22T07:52:25;50.73;;;47.73;;
10452;SDS011;5274;51.992;8.518;2023-11-22T07:54:57;52.53;;;49.43;;
10452;SDS011;5274;51.992;8.518;2023-11-22T07:57:23;53.40;;;49.97;;
10452;SDS011;5274;51.992;8.518;2023-11-22T07:59:49;53.37;;;50.03;;
10452;SDS011;5274;51.992;8.518;2023-11-22T08:02:17;51.07;;;47.87;;
10452;SDS011;5274;51.992;8.518;2023-11-22T08:04:44;51.27;;;48.17;;
10452;SDS011;5274;51.992;8.518;2023-11-22T08:07:10;49.23;;;46.33;;
10452;SDS011;5274;51.992;8.518;2023-11-22T08:09:42;53.17;;;49.73;;
10452;SDS011;5274;51.992;8.518;2023-11-22T08:12:08;53.03;;;49.83;;
10452;SDS011;5274;51.992;8.518;2023-11-22T08:14:36;52.90;;;49.60;;
10452;SDS011;5274;51.992;8.518;2023-11-22T08:17:02;54.00;;;50.67;;
10452;SDS011;5274;51.992;8.518;2023-11-22T08:19:28;55.37;;;51.77;;
10452;SDS011;5274;51.992;8.518;2023-11-22T08:21:54;55.20;;;51.80;;
10452;SDS011;5274;51.992;8.518;2023-11-22T08:24:20;55.27;;;51.70;;
10452;SDS011;5274;51.992;8.518;2023-11-22T08:26:47;56.90;;;53.33;;
10452;SDS011;5274;51.992;8.518;2023-11-22T08:29:13;52.87;;;49.57;;
10452;SDS011;5274;51.992;8.518;2023-11-22T08:31:39;53.27;;;49.70;;
10452;SDS011;5274;51.992;8.518;2023-11-22T08:34:05;52.53;;;49.23;;
10452;SDS011;5274;51.992;8.518;2023-11-22T08:36:32;54.23;;;50.50;;
10452;SDS011;5274;51.992;8.518;2023-11-22T08:39:01;54.23;;;50.63;;
10452;SDS011;5274;51.992;8.518;2023-11-22T08:41:28;53.33;;;49.90;;
10452;SDS011;5274;51.992;8.518;2023-11-22T08:43:55;51.47;;;48.17;;
10452;SDS011;5274;51.992;8.518;2023-11-22T08:46:21;53.47;;;50.03;;
10452;SDS011;5274;51.992;8.518;2023-11-22T08:48:48;53.13;;;49.53;;
10452;SDS011;5274;51.992;8.518;2023-11-22T08:51:15;53.37;;;49.87;;
10452;SDS011;5274;51.992;8.518;2023-11-22T08:53:42;52.90;;;49.40;;
10452;SDS011;5274;51.992;8.518;2023-11-22T08:56:09;51.37;;;48.17;;
10452;SDS011;5274;51.992;8.518;2023-11-22T08:58:36;52.03;;;48.77;;
10452;SDS011;5274;51.992;8.518;2023-11-22T09:01:02;50.33;;;47.13;;
10452;SDS011;5274;51.992;8.518;2023-11-22T09:03:28;51.97;;;48.73;;
10452;SDS011;5274;51.992;8.518;2023-11-22T09:05:54;51.87;;;48.70;;
10452;SDS011;5274;51.992;8.518;2023-11-22T09:08:20;52.97;;;49.50;;
10452;SDS011;5274;51.992;8.518;2023-11-22T09:10:46;53.17;;;49.67;;
10452;SDS011;5274;51.992;8.518;2023-11-22T09:13:12;51.22;;;47.72;;
10452;SDS011;5274;51.992;8.518;2023-11-22T09:15:41;51.80;;;48.53;;
10452;SDS011;5274;51.992;8.518;2023-11-22T09:18:09;51.97;;;48.47;;
10452;SDS011;5274;51.992;8.518;2023-11-22T09:20:35;53.63;;;50.33;;
10452;SDS011;5274;51.992;8.518;2023-11-22T09:23:01;52.80;;;49.57;;
10452;SDS011;5274;51.992;8.518;2023-11-22T09:25:29;50.95;;;47.58;;
10452;SDS011;5274;51.992;8.518;2023-11-22T09:27:56;51.10;;;47.72;;
10452;SDS011;5274;51.992;8.518;2023-11-22T09:30:26;55.13;;;51.07;;
10452;SDS011;5274;51.992;8.518;2023-11-22T09:33:08;53.17;;;49.77;;
10452;SDS011;5274;51.992;8.518;2023-11-22T09:35:35;50.97;;;47.73;;
10452;SDS011;5274;51.992;8.518;2023-11-22T09:38:02;46.60;;;43.57;;
10452;SDS011;5274;51.992;8.518;2023-11-22T09:40:30;48.37;;;45.17;;
10452;SDS011;5274;51.992;8.518;2023-11-22T09:42:57;47.58;;;44.78;;
10452;SDS011;5274;51.992;8.518;2023-11-22T09:45:24;49.63;;;46.40;;
10452;SDS011;5274;51.992;8.518;2023-11-22T09:47:50;51.20;;;48.17;;
10452;SDS011;5274;51.992;8.518;2023-11-22T09:50:17;49.75;;;46.75;;
10452;SDS011;5274;51.992;8.518;2023-11-22T09:52:45;49.67;;;46.67;;
10452;SDS011;5274;51.992;8.518;2023-11-22T09:55:14;47.65;;;44.95;;
10452;SDS011;5274;51.992;8.518;2023-11-22T09:57:40;50.97;;;47.50;;
10452;SDS011;5274;51.992;8.518;2023-11-22T10:00:07;51.17;;;47.63;;
10452;SDS011;5274;51.992;8.518;2023-11-22T10:02:33;48.47;;;45.58;;
10452;SDS011;5274;51.992;8.518;2023-11-22T10:05:00;47.63;;;44.63;;
10452;SDS011;5274;51.992;8.518;2023-11-22T10:07:26;50.85;;;47.85;;
10452;SDS011;5274;51.992;8.518;2023-11-22T10:09:52;50.58;;;47.58;;
10452;SDS011;5274;51.992;8.518;2023-11-22T10:12:21;51.43;;;48.43;;
10452;SDS011;5274;51.992;8.518;2023-11-22T10:14:47;51.35;;;48.17;;
10452;SDS011;5274;51.992;8.518;2023-11-22T10:17:13;53.60;;;50.40;;
10452;SDS011;5274;51.992;8.518;2023-11-22T10:19:41;50.72;;;47.92;;
10452;SDS011;5274;51.992;8.518;2023-11-22T10:22:08;52.20;;;49.13;;
10452;SDS011;5274;51.992;8.518;2023-11-22T10:24:34;51.40;;;48.40;;
10452;SDS011;5274;51.992;8.518;2023-11-22T10:27:01;50.80;;;48.00;;
10452;SDS011;5274;51.992;8.518;2023-11-22T10:29:27;49.47;;;46.77;;
10452;SDS011;5274;51.992;8.518;2023-11-22T10:31:53;49.15;;;46.35;;
10452;SDS011;5274;51.992;8.518;2023-11-22T10:34:23;49.93;;;47.03;;
10452;SDS011;5274;51.992;8.518;2023-11-22T10:36:50;47.97;;;45.08;;
10452;SDS011;5274;51.992;8.518;2023-11-22T10:39:19;50.03;;;47.23;;
10452;SDS011;5274;51.992;8.518;2023-11-22T10:41:45;50.90;;;48.00;;
10452;SDS011;5274;51.992;8.518;2023-11-22T10:44:11;49.75;;;46.95;;
10452;SDS011;5274;51.992;8.518;2023-11-22T10:46:39;50.35;;;47.55;;
10452;SDS011;5274;51.992;8.518;2023-11-22T10:49:05;46.22;;;43.63;;
10452;SDS011;5274;51.992;8.518;2023-11-22T10:51:31;45.80;;;43.35;;
10452;SDS011;5274;51.992;8.518;2023-11-22T10:53:58;46.47;;;43.88;;
10452;SDS011;5274;51.992;8.518;2023-11-22T10:56:28;44.35;;;41.90;;
10452;SDS011;5274;51.992;8.518;2023-11-22T10:58:56;48.00;;;45.40;;
10452;SDS011;5274;51.992;8.518;2023-11-22T11:01:24;48.00;;;45.28;;
10452;SDS011;5274;51.992;8.518;2023-11-22T11:06:51;50.25;;;47.33;;
10452;SDS011;5274;51.992;8.518;2023-11-22T11:09:17;48.92;;;46.15;;
10452;SDS011;5274;51.992;8.518;2023-11-22T11:11:46;48.60;;;45.72;;
10452;SDS011;5274;51.992;8.518;2023-11-22T11:14:12;47.70;;;45.20;;
10452;SDS011;5274;51.992;8.518;2023-11-22T11:16:40;52.05;;;49.22;;
10452;SDS011;5274;51.992;8.518;2023-11-22T11:19:12;49.83;;;47.13;;
10452;SDS011;5274;51.992;8.518;2023-11-22T11:21:38;50.85;;;48.05;;
10452;SDS011;5274;51.992;8.518;2023-11-22T11:24:04;51.67;;;48.80;;
10452;SDS011;5274;51.992;8.518;2023-11-22T11:26:33;46.40;;;43.90;;
10452;SDS011;5274;51.992;8.518;2023-11-22T11:29:02;51.17;;;48.28;;
10452;SDS011;5274;51.992;8.518;2023-11-22T11:31:32;49.85;;;46.95;;
10452;SDS011;5274;51.992;8.518;2023-11-22T11:34:01;47.60;;;45.00;;
10452;SDS011;5274;51.992;8.518;2023-11-22T11:36:31;50.65;;;47.67;;
10452;SDS011;5274;51.992;8.518;2023-11-22T11:38:58;48.97;;;46.38;;
10452;SDS011;5274;51.992;8.518;2023-11-22T11:41:26;49.15;;;46.47;;
10452;SDS011;5274;51.992;8.518;2023-11-22T11:43:53;48.33;;;45.63;;
10452;SDS011;5274;51.992;8.518;2023-11-22T11:46:19;52.33;;;48.90;;
10452;SDS011;5274;51.992;8.518;2023-11-22T11:48:48;48.92;;;46.20;;
10452;SDS011;5274;51.992;8.518;2023-11-22T11:51:15;51.78;;;48.88;;
10452;SDS011;5274;51.992;8.518;2023-11-22T11:53:42;53.83;;;50.78;;
10452;SDS011;5274;51.992;8.518;2023-11-22T11:56:08;50.75;;;47.95;;
10452;SDS011;5274;51.992;8.518;2023-11-22T11:58:34;51.90;;;49.10;;
10452;SDS011;5274;51.992;8.518;2023-11-22T12:01:00;51.40;;;48.50;;
10452;SDS011;5274;51.992;8.518;2023-11-22T12:03:27;48.30;;;45.58;;
10452;SDS011;5274;51.992;8.518;2023-11-22T12:05:54;49.22;;;46.50;;
10452;SDS011;5274;51.992;8.518;2023-11-22T12:08:20;51.75;;;48.65;;
10452;SDS011;5274;51.992;8.518;2023-11-22T12:10:46;56.30;;;52.67;;
10452;SDS011;5274;51.992;8.518;2023-11-22T12:13:18;53.78;;;50.78;;
10452;SDS011;5274;51.992;8.518;2023-11-22T12:15:44;52.55;;;49.75;;
10452;SDS011;5274;51.992;8.518;2023-11-22T12:18:10;53.80;;;50.90;;
10452;SDS011;5274;51.992;8.518;2023-11-22T12:20:36;52.15;;;49.22;;
10452;SDS011;5274;51.992;8.518;2023-11-22T12:23:02;51.63;;;48.83;;
10452;SDS011;5274;51.992;8.518;2023-11-22T12:25:31;49.65;;;46.80;;
10452;SDS011;5274;51.992;8.518;2023-11-22T12:27:57;50.50;;;47.60;;
10452;SDS011;5274;51.992;8.518;2023-11-22T12:30:30;51.65;;;48.75;;
10452;SDS011;5274;51.992;8.518;2023-11-22T12:33:00;51.72;;;48.63;;
10452;SDS011;5274;51.992;8.518;2023-11-22T12:35:27;53.08;;;50.22;;
10452;SDS011;5274;51.992;8.518;2023-11-22T12:37:53;51.83;;;48.90;;
10452;SDS011;5274;51.992;8.518;2023-11-22T12:40:19;49.53;;;46.88;;
10452;SDS011;5274;51.992;8.518;2023-11-22T12:42:51;50.20;;;47.42;;
10452;SDS011;5274;51.992;8.518;2023-11-22T12:45:21;52.60;;;49.80;;
10452;SDS011;5274;51.992;8.518;2023-11-22T12:47:49;45.42;;;43.13;;
10452;SDS011;5274;51.992;8.518;2023-11-22T12:52:56;47.67;;;45.17;;
10452;SDS011;5274;51.992;8.518;2023-11-22T12:55:22;41.08;;;38.97;;
10452;SDS011;5274;51.992;8.518;2023-11-22T12:57:58;46.17;;;43.75;;
10452;SDS011;5274;51.992;8.518;2023-11-22T13:00:26;48.47;;;45.78;;
10452;SDS011;5274;51.992;8.518;2023-11-22T13:02:55;49.25;;;46.60;;
10452;SDS011;5274;51.992;8.518;2023-11-22T13:05:22;51.20;;;48.30;;
10452;SDS011;5274;51.992;8.518;2023-11-22T13:07:48;49.42;;;46.72;;
10452;SDS011;5274;51.992;8.518;2023-11-22T13:10:14;47.53;;;45.03;;
10452;SDS011;5274;51.992;8.518;2023-11-22T13:12:43;51.45;;;48.45;;
10452;SDS011;5274;51.992;8.518;2023-11-22T13:15:10;46.10;;;43.60;;
10452;SDS011;5274;51.992;8.518;2023-11-22T13:17:37;46.92;;;44.42;;
10452;SDS011;5274;51.992;8.518;2023-11-22T13:20:05;47.17;;;44.63;;
10452;SDS011;5274;51.992;8.518;2023-11-22T13:22:38;52.08;;;49.28;;
10452;SDS011;5274;51.992;8.518;2023-11-22T13:25:04;53.03;;;49.92;;
10452;SDS011;5274;51.992;8.518;2023-11-22T13:27:31;53.00;;;50.05;;
10452;SDS011;5274;51.992;8.518;2023-11-22T13:29:57;50.88;;;47.63;;
10452;SDS011;5274;51.992;8.518;2023-11-22T13:32:23;49.70;;;46.72;;
10452;SDS011;5274;51.992;8.518;2023-11-22T13:34:51;48.72;;;45.92;;
10452;SDS011;5274;51.992;8.518;2023-11-22T13:37:26;49.05;;;45.92;;
10452;SDS011;5274;51.992;8.518;2023-11-22T13:39:54;49.20;;;46.30;;
10452;SDS011;5274;51.992;8.518;2023-11-22T13:42:20;48.05;;;45.28;;
10452;SDS011;5274;51.992;8.518;2023-11-22T13:44:46;45.85;;;43.17;;
10452;SDS011;5274;51.992;8.518;2023-11-22T13:47:12;40.30;;;38.10;;
10452;SDS011;5274;51.992;8.518;2023-11-22T13:49:41;42.30;;;39.90;;
10452;SDS011;5274;51.992;8.518;2023-11-22T13:52:08;32.42;;;30.52;;
10452;SDS011;5274;51.992;8.518;2023-11-22T13:54:34;34.75;;;32.85;;
10452;SDS011;5274;51.992;8.518;2023-11-22T13:57:04;28.27;;;26.67;;
10452;SDS011;5274;51.992;8.518;2023-11-22T13:59:30;36.20;;;34.08;;
10452;SDS011;5274;51.992;8.518;2023-11-22T14:01:56;39.42;;;37.13;;
10452;SDS011;5274;51.992;8.518;2023-11-22T14:04:22;34.17;;;32.17;;
10452;SDS011;5274;51.992;8.518;2023-11-22T14:06:48;34.70;;;32.60;;
10452;SDS011;5274;51.992;8.518;2023-11-22T14:09:15;40.03;;;37.60;;
10452;SDS011;5274;51.992;8.518;2023-11-22T14:11:41;38.97;;;36.65;;
10452;SDS011;5274;51.992;8.518;2023-11-22T14:14:07;39.00;;;36.67;;
10452;SDS011;5274;51.992;8.518;2023-11-22T14:16:34;32.72;;;30.63;;
10452;SDS011;5274;51.992;8.518;2023-11-22T14:19:03;36.38;;;34.17;;
10452;SDS011;5274;51.992;8.518;2023-11-22T14:21:30;39.92;;;37.42;;
10452;SDS011;5274;51.992;8.518;2023-11-22T14:23:57;40.28;;;37.97;;
10452;SDS011;5274;51.992;8.518;2023-11-22T14:26:24;34.03;;;32.03;;
10452;SDS011;5274;51.992;8.518;2023-11-22T14:28:50;38.33;;;36.13;;
10452;SDS011;5274;51.992;8.518;2023-11-22T14:31:16;38.65;;;36.35;;
10452;SDS011;5274;51.992;8.518;2023-11-22T14:33:42;35.97;;;33.90;;
10452;SDS011;5274;51.992;8.518;2023-11-22T14:36:08;39.60;;;37.17;;